createdAt,value
2018-03-17T00:01:13.059Z,18.97
2018-03-17T00:03:44.047Z,17.60
2018-03-17T00:06:15.049Z,18.57
2018-03-17T00:08:46.018Z,16.93
2018-03-17T00:11:16.989Z,16.13
2018-03-17T00:13:47.972Z,20.27
2018-03-17T00:16:19.005Z,19.13
2018-03-17T00:18:50.012Z,19.17
2018-03-17T00:21:20.979Z,21.53
2018-03-17T00:23:51.976Z,27.40
2018-03-17T00:26:22.965Z,20.17
2018-03-17T00:28:53.988Z,18.87
2018-03-17T00:31:24.982Z,17.67
2018-03-17T00:33:56.001Z,19.60
2018-03-17T00:36:26.968Z,16.63
2018-03-17T00:38:57.974Z,17.40
2018-03-17T00:41:28.954Z,16.73
2018-03-17T00:43:59.944Z,13.10
2018-03-17T00:46:30.955Z,16.30
2018-03-17T00:49:01.966Z,14.60
2018-03-17T00:51:32.931Z,16.80
2018-03-17T00:54:03.977Z,17.77
2018-03-17T00:56:34.964Z,14.77
2018-03-17T00:59:05.960Z,15.73
2018-03-17T01:01:36.961Z,14.23
2018-03-17T01:04:07.947Z,14.73
2018-03-17T01:06:39.042Z,15.70
2018-03-17T01:09:10.055Z,17.53
2018-03-17T01:11:41.082Z,17.03
2018-03-17T01:14:12.069Z,18.63
2018-03-17T01:16:43.122Z,16.43
2018-03-17T01:19:14.125Z,16.67
2018-03-17T01:21:45.388Z,18.73
2018-03-17T01:24:16.403Z,16.73
2018-03-17T01:26:47.403Z,19.03
2018-03-17T01:29:18.393Z,16.73
2018-03-17T01:31:49.360Z,15.70
2018-03-17T01:34:20.379Z,13.57
2018-03-17T01:36:51.342Z,14.53
2018-03-17T01:39:22.369Z,13.83
2018-03-17T01:41:53.385Z,14.57
2018-03-17T01:44:24.333Z,16.47
2018-03-17T01:46:55.380Z,17.90
2018-03-17T01:49:26.362Z,12.50
2018-03-17T01:51:57.433Z,13.53
2018-03-17T01:54:30.258Z,12.27
2018-03-17T01:57:01.261Z,16.47
2018-03-17T01:59:32.293Z,13.57
2018-03-17T02:02:03.305Z,16.13
2018-03-17T02:04:34.357Z,12.87
2018-03-17T02:07:05.329Z,15.77
2018-03-17T02:09:36.300Z,14.83
2018-03-17T02:12:07.313Z,17.47
2018-03-17T02:14:38.347Z,15.47
2018-03-17T02:17:09.387Z,17.37
2018-03-17T02:19:40.392Z,16.07
2018-03-17T02:22:11.462Z,21.30
2018-03-17T02:24:42.521Z,17.27
2018-03-17T02:27:13.500Z,19.53
2018-03-17T02:29:44.506Z,17.07
2018-03-17T02:32:15.712Z,19.03
2018-03-17T02:34:46.747Z,18.10
2018-03-17T02:37:17.761Z,18.53
2018-03-17T02:39:48.802Z,20.50
2018-03-17T02:42:19.799Z,19.20
2018-03-17T02:44:50.792Z,19.40
2018-03-17T02:47:21.804Z,18.47
2018-03-17T02:49:52.801Z,17.03
2018-03-17T02:52:23.773Z,17.37
2018-03-17T02:54:54.761Z,18.60
2018-03-17T02:57:25.752Z,15.00
2018-03-17T02:59:56.800Z,17.10
2018-03-17T03:02:27.772Z,18.00
2018-03-17T03:04:58.774Z,22.17
2018-03-17T03:07:29.765Z,18.23
2018-03-17T03:10:00.782Z,18.30
2018-03-17T03:12:31.763Z,19.63
2018-03-17T03:15:02.816Z,18.30
2018-03-17T03:17:33.822Z,17.17
2018-03-17T03:20:04.861Z,17.93
2018-03-17T03:22:35.819Z,19.63
2018-03-17T03:25:06.830Z,19.13
2018-03-17T03:27:37.808Z,16.10
2018-03-17T03:30:08.845Z,21.10
2018-03-17T03:32:39.869Z,16.30
2018-03-17T03:35:10.848Z,14.60
2018-03-17T03:37:41.860Z,14.80
2018-03-17T03:40:12.852Z,15.90
2018-03-17T03:42:43.804Z,15.50
2018-03-17T03:45:14.759Z,15.27
2018-03-17T03:47:45.739Z,14.73
2018-03-17T03:50:16.714Z,15.30
2018-03-17T03:52:47.713Z,13.97
2018-03-17T03:55:18.684Z,14.60
2018-03-17T03:57:49.649Z,14.57
2018-03-17T04:00:20.634Z,13.60
2018-03-17T04:02:51.681Z,13.57
2018-03-17T04:05:22.671Z,13.33
2018-03-17T04:07:53.657Z,12.87
2018-03-17T04:10:24.715Z,13.33
2018-03-17T04:12:55.706Z,13.60
2018-03-17T04:15:26.769Z,13.27
2018-03-17T04:17:57.722Z,17.33
2018-03-17T04:20:28.749Z,13.40
2018-03-17T04:22:59.722Z,13.40
2018-03-17T04:25:30.724Z,14.30
2018-03-17T04:28:01.710Z,14.83
2018-03-17T04:30:32.721Z,14.50
2018-03-17T04:33:03.708Z,15.33
2018-03-17T04:35:34.724Z,16.23
2018-03-17T04:38:05.724Z,15.93
2018-03-17T04:40:36.749Z,17.80
2018-03-17T04:43:07.771Z,21.50
2018-03-17T04:45:38.755Z,22.43
2018-03-17T04:48:09.729Z,17.47
2018-03-17T04:50:40.796Z,26.20
2018-03-17T04:53:11.761Z,21.83
2018-03-17T04:55:42.764Z,21.83
2018-03-17T04:58:13.777Z,21.23
2018-03-17T05:00:44.771Z,23.77
2018-03-17T05:03:15.789Z,20.03
2018-03-17T05:05:46.786Z,21.60
2018-03-17T05:08:17.776Z,21.83
2018-03-17T05:10:48.762Z,22.63
2018-03-17T05:13:19.735Z,21.27
2018-03-17T05:15:50.746Z,21.03
2018-03-17T05:18:21.715Z,18.57
2018-03-17T05:20:52.727Z,23.37
2018-03-17T05:23:23.691Z,22.00
2018-03-17T05:25:54.684Z,20.43
2018-03-17T05:28:25.665Z,20.37
2018-03-17T05:30:56.638Z,19.47
2018-03-17T05:33:27.634Z,22.30
2018-03-17T05:35:58.656Z,17.47
2018-03-17T05:38:29.681Z,18.40
2018-03-17T05:41:00.680Z,17.27
2018-03-17T05:43:31.663Z,20.70
2018-03-17T05:46:05.594Z,18.20
2018-03-17T05:48:36.595Z,18.50
2018-03-17T05:51:07.613Z,18.73
2018-03-17T05:53:38.610Z,18.83
2018-03-17T05:56:09.606Z,19.00
2018-03-17T05:58:40.646Z,17.80
2018-03-17T06:01:11.630Z,20.07
2018-03-17T06:03:42.653Z,21.67
2018-03-17T06:06:13.667Z,23.37
2018-03-17T06:08:44.657Z,24.40
2018-03-17T06:11:15.697Z,24.67
2018-03-17T06:13:46.712Z,23.37
2018-03-17T06:16:17.710Z,24.23
2018-03-17T06:18:48.744Z,21.60
2018-03-17T06:21:19.755Z,23.80
2018-03-17T06:23:50.738Z,21.10
2018-03-17T06:26:21.731Z,24.33
2018-03-17T06:28:52.728Z,22.37
2018-03-17T06:31:23.733Z,24.43
2018-03-17T06:33:54.757Z,23.30
2018-03-17T06:36:25.783Z,24.47
2018-03-17T06:38:56.792Z,20.77
2018-03-17T06:41:27.795Z,23.00
2018-03-17T06:43:58.784Z,27.07
2018-03-17T06:46:29.799Z,20.37
2018-03-17T06:49:00.814Z,21.30
2018-03-17T06:51:31.845Z,21.10
2018-03-17T06:54:02.855Z,21.00
2018-03-17T06:56:33.844Z,25.47
2018-03-17T06:59:04.859Z,22.03
2018-03-17T07:01:35.917Z,19.97
2018-03-17T07:04:06.924Z,22.27
2018-03-17T07:06:37.973Z,22.83
2018-03-17T07:09:09.011Z,19.47
2018-03-17T07:11:40.023Z,21.47
2018-03-17T07:14:11.021Z,21.40
2018-03-17T07:16:42.018Z,18.93
2018-03-17T07:19:13.063Z,21.60
2018-03-17T07:21:44.121Z,20.83
2018-03-17T07:24:15.139Z,19.43
2018-03-17T07:26:46.176Z,19.83
2018-03-17T07:29:17.178Z,18.70
2018-03-17T07:31:48.210Z,20.00
2018-03-17T07:34:19.229Z,21.63
2018-03-17T07:36:50.280Z,19.47
2018-03-17T07:39:21.321Z,19.53
2018-03-17T07:41:52.486Z,16.83
2018-03-17T07:44:23.504Z,17.40
2018-03-17T07:46:54.503Z,19.57
2018-03-17T07:49:25.598Z,18.57
2018-03-17T07:51:56.573Z,15.57
2018-03-17T07:54:27.598Z,17.20
2018-03-17T07:56:58.563Z,17.97
2018-03-17T07:59:29.568Z,19.03
2018-03-17T08:02:00.582Z,17.47
2018-03-17T08:04:31.582Z,17.53
2018-03-17T08:07:02.667Z,17.07
2018-03-17T08:09:33.729Z,17.47
2018-03-17T08:12:04.714Z,18.53
2018-03-17T08:14:35.675Z,16.97
2018-03-17T08:17:06.685Z,19.67
2018-03-17T08:19:37.703Z,17.40
2018-03-17T08:22:08.742Z,19.50
2018-03-17T08:24:39.756Z,19.53
2018-03-17T08:27:10.797Z,21.87
2018-03-17T08:29:41.822Z,19.83
2018-03-17T08:32:12.872Z,18.70
2018-03-17T08:34:43.892Z,19.03
2018-03-17T08:37:21.951Z,20.00
2018-03-17T08:39:52.966Z,19.13
2018-03-17T08:42:23.958Z,22.87
2018-03-17T08:44:55.010Z,20.57
2018-03-17T08:47:26.074Z,18.73
2018-03-17T08:49:57.156Z,20.03
2018-03-17T08:52:28.238Z,18.30
2018-03-17T08:54:59.243Z,20.10
2018-03-17T08:57:30.195Z,19.33
2018-03-17T09:00:01.203Z,22.63
2018-03-17T09:02:32.164Z,22.07
2018-03-17T09:05:03.217Z,20.97
2018-03-17T09:07:34.257Z,19.90
2018-03-17T09:10:05.203Z,23.93
2018-03-17T09:12:36.318Z,20.50
2018-03-17T09:15:07.303Z,18.63
2018-03-17T09:17:38.284Z,19.83
2018-03-17T09:20:09.269Z,19.60
2018-03-17T09:22:40.250Z,18.13
2018-03-17T09:25:11.277Z,17.97
2018-03-17T09:27:42.334Z,19.43
2018-03-17T09:30:13.320Z,16.60
2018-03-17T09:32:44.327Z,18.73
2018-03-17T09:35:15.305Z,16.53
2018-03-17T09:37:46.313Z,17.17
2018-03-17T09:40:17.330Z,18.30
2018-03-17T09:42:48.356Z,18.67
2018-03-17T09:45:19.382Z,17.70
2018-03-17T09:47:50.375Z,16.93
2018-03-17T09:50:21.385Z,15.90
2018-03-17T09:52:52.363Z,17.03
2018-03-17T09:55:23.362Z,17.57
2018-03-17T09:57:54.604Z,17.07
2018-03-17T10:00:25.651Z,18.07
2018-03-17T10:02:56.618Z,17.63
2018-03-17T10:05:27.611Z,15.70
2018-03-17T10:07:58.573Z,15.43
2018-03-17T10:10:29.591Z,16.40
2018-03-17T10:13:00.575Z,16.50
2018-03-17T10:15:31.535Z,15.00
2018-03-17T10:18:02.507Z,16.03
2018-03-17T10:20:33.485Z,15.03
2018-03-17T10:23:04.516Z,14.47
2018-03-17T10:25:35.507Z,16.37
2018-03-17T10:28:06.481Z,15.10
2018-03-17T10:30:37.469Z,15.80
2018-03-17T10:33:08.451Z,16.27
2018-03-17T10:35:39.454Z,14.73
2018-03-17T10:38:10.455Z,14.93
2018-03-17T10:40:41.480Z,14.37
2018-03-17T10:43:12.534Z,15.87
2018-03-17T10:45:43.559Z,14.30
2018-03-17T10:48:14.586Z,16.43
2018-03-17T10:50:45.577Z,15.13
2018-03-17T10:53:16.584Z,15.47
2018-03-17T10:55:47.619Z,13.73
2018-03-17T10:58:18.657Z,13.90
2018-03-17T11:00:53.702Z,15.20
2018-03-17T11:03:24.703Z,14.90
2018-03-17T11:05:55.819Z,13.47
2018-03-17T11:08:26.871Z,12.43
2018-03-17T11:10:57.973Z,13.60
2018-03-17T11:13:28.986Z,14.07
2018-03-17T11:16:00.019Z,12.77
2018-03-17T11:18:31.179Z,12.90
2018-03-17T11:21:02.179Z,12.90
2018-03-17T11:23:33.170Z,13.00
2018-03-17T11:26:04.223Z,13.17
2018-03-17T11:28:35.233Z,14.07
2018-03-17T11:31:06.235Z,13.23
2018-03-17T11:33:37.204Z,13.57
2018-03-17T11:36:08.187Z,12.73
2018-03-17T11:38:39.221Z,12.97
2018-03-17T11:41:10.224Z,11.73
2018-03-17T11:43:41.263Z,13.57
2018-03-17T11:46:12.239Z,13.03
2018-03-17T11:48:43.224Z,11.23
2018-03-17T11:51:14.184Z,12.73
2018-03-17T11:53:45.171Z,11.60
2018-03-17T11:56:16.140Z,11.50
2018-03-17T11:58:47.200Z,12.53
2018-03-17T12:01:18.214Z,13.00
2018-03-17T12:03:49.280Z,12.63
2018-03-17T12:06:20.252Z,11.63
2018-03-17T12:08:51.330Z,12.33
2018-03-17T12:11:22.360Z,12.03
2018-03-17T12:13:53.363Z,12.20
2018-03-17T12:16:24.333Z,12.37
2018-03-17T12:18:55.447Z,12.63
2018-03-17T12:21:26.421Z,12.47
2018-03-17T12:23:57.424Z,12.60
2018-03-17T12:26:28.388Z,11.60
2018-03-17T12:28:59.413Z,12.07
2018-03-17T12:31:30.400Z,11.93
2018-03-17T12:34:01.440Z,11.83
2018-03-17T12:36:32.469Z,12.10
2018-03-17T12:39:03.508Z,12.47
2018-03-17T12:41:34.599Z,12.17
2018-03-17T12:44:05.597Z,11.83
2018-03-17T12:46:36.593Z,11.30
2018-03-17T12:49:07.605Z,11.77
2018-03-17T12:51:38.596Z,12.10
2018-03-17T12:54:09.551Z,11.60
2018-03-17T12:56:40.608Z,12.13
2018-03-17T12:59:11.591Z,11.17
2018-03-17T13:01:42.557Z,13.07
2018-03-17T13:04:13.621Z,12.10
2018-03-17T13:06:44.652Z,12.60
2018-03-17T13:09:15.638Z,12.10
2018-03-17T13:11:46.675Z,12.40
2018-03-17T13:14:17.711Z,13.60
2018-03-17T13:16:48.724Z,12.90
2018-03-17T13:19:27.085Z,14.23
2018-03-17T13:21:58.019Z,12.67
2018-03-17T13:24:29.033Z,14.03
2018-03-17T13:27:12.288Z,13.47
2018-03-17T13:29:43.351Z,12.77
2018-03-17T13:32:26.856Z,14.07
2018-03-17T13:34:57.931Z,13.00
2018-03-17T13:37:39.972Z,12.93
2018-03-17T13:40:23.286Z,13.43
2018-03-17T13:42:54.529Z,13.57
2018-03-17T13:45:25.569Z,14.27
2018-03-17T13:47:56.593Z,13.90
2018-03-17T13:50:28.479Z,13.27
2018-03-17T13:52:59.503Z,13.13
2018-03-17T13:55:30.510Z,13.37
2018-03-17T13:58:01.531Z,13.03
2018-03-17T14:00:33.386Z,14.33
2018-03-17T14:03:04.378Z,12.23
2018-03-17T14:05:35.545Z,12.63
2018-03-17T14:08:06.536Z,13.80
2018-03-17T14:10:37.609Z,12.97
2018-03-17T14:13:08.602Z,13.43
2018-03-17T14:15:39.589Z,13.37
2018-03-17T14:18:10.615Z,11.97
2018-03-17T14:20:41.602Z,12.53
2018-03-17T14:23:12.605Z,12.93
2018-03-17T14:25:43.864Z,11.67
2018-03-17T14:28:14.841Z,12.93
2018-03-17T14:30:45.959Z,14.07
2018-03-17T14:33:16.988Z,12.73
2018-03-17T14:35:48.023Z,12.73
2018-03-17T14:38:19.102Z,12.80
2018-03-17T14:40:50.119Z,13.30
2018-03-17T14:43:21.113Z,13.20
2018-03-17T14:45:52.140Z,14.07
2018-03-17T14:48:23.171Z,13.10
2018-03-17T14:50:54.168Z,13.27
2018-03-17T14:53:25.172Z,13.50
2018-03-17T14:55:56.209Z,14.50
2018-03-17T14:58:27.249Z,12.97
2018-03-17T15:00:58.344Z,14.70
2018-03-17T15:03:29.361Z,13.60
2018-03-17T15:06:00.472Z,14.23
2018-03-17T15:08:31.509Z,15.33
2018-03-17T15:11:02.536Z,15.37
2018-03-17T15:13:33.539Z,14.53
2018-03-17T15:16:04.527Z,13.70
2018-03-17T15:18:35.666Z,14.70
2018-03-17T15:21:06.666Z,14.40
2018-03-17T15:23:37.662Z,14.20
2018-03-17T15:26:08.662Z,13.17
2018-03-17T15:28:39.633Z,17.13
2018-03-17T15:31:10.673Z,15.67
2018-03-17T15:33:41.648Z,15.43
2018-03-17T15:36:12.669Z,15.47
2018-03-17T15:38:43.723Z,14.37
2018-03-17T15:41:14.718Z,16.47
2018-03-17T15:43:45.727Z,17.17
2018-03-17T15:46:16.720Z,15.20
2018-03-17T15:48:47.731Z,19.17
2018-03-17T15:51:18.720Z,15.50
2018-03-17T15:53:49.757Z,16.90
2018-03-17T15:56:20.765Z,18.37
2018-03-17T15:58:51.824Z,18.10
2018-03-17T16:01:22.875Z,16.23
2018-03-17T16:03:53.867Z,16.90
2018-03-17T16:06:24.954Z,15.17
2018-03-17T16:08:55.916Z,17.97
2018-03-17T16:11:26.934Z,18.07
2018-03-17T16:13:57.905Z,17.87
2018-03-17T16:16:28.905Z,16.73
2018-03-17T16:18:59.870Z,16.77
2018-03-17T16:21:30.894Z,16.90
2018-03-17T16:24:01.920Z,16.07
2018-03-17T16:26:32.911Z,18.00
2018-03-17T16:29:03.970Z,16.63
2018-03-17T16:31:35.219Z,18.27
2018-03-17T16:34:06.259Z,19.17
2018-03-17T16:36:37.277Z,17.70
2018-03-17T16:39:08.314Z,16.00
2018-03-17T16:41:39.317Z,15.93
2018-03-17T16:44:10.358Z,17.60
2018-03-17T16:46:41.416Z,16.50
2018-03-17T16:49:12.621Z,17.60
2018-03-17T16:51:43.672Z,16.27
2018-03-17T16:54:14.684Z,18.23
2018-03-17T16:56:45.757Z,17.07
2018-03-17T16:59:16.786Z,16.50
2018-03-17T17:01:47.743Z,16.60
2018-03-17T17:04:18.745Z,17.37
2018-03-17T17:06:49.764Z,18.10
2018-03-17T17:09:20.740Z,16.23
2018-03-17T17:11:51.779Z,16.57
2018-03-17T17:14:22.829Z,14.32
2018-03-17T17:16:53.842Z,16.70
2018-03-17T17:19:26.217Z,14.93
2018-03-17T17:21:57.305Z,16.00
2018-03-17T17:24:28.306Z,18.83
2018-03-17T17:26:59.596Z,16.30
2018-03-17T17:29:30.624Z,15.70
2018-03-17T17:32:01.626Z,13.05
2018-03-17T17:34:32.638Z,15.97
2018-03-17T17:37:03.684Z,14.87
2018-03-17T17:39:34.709Z,17.77
2018-03-17T17:42:05.689Z,15.85
2018-03-17T17:44:36.675Z,15.00
2018-03-17T17:47:07.643Z,13.40
2018-03-17T17:49:38.715Z,15.10
2018-03-17T17:52:10.902Z,16.15
2018-03-17T17:54:41.979Z,14.35
2018-03-17T17:57:13.045Z,13.62
2018-03-17T17:59:44.056Z,14.75
2018-03-17T18:02:15.015Z,14.65
2018-03-17T18:04:46.083Z,14.37
2018-03-17T18:07:17.108Z,13.23
2018-03-17T18:09:48.095Z,16.25
2018-03-17T18:12:19.111Z,14.30
2018-03-17T18:14:50.147Z,14.43
2018-03-17T18:17:21.160Z,15.18
2018-03-17T18:19:52.233Z,15.00
2018-03-17T18:22:23.247Z,15.85
2018-03-17T18:24:54.314Z,15.93
2018-03-17T18:27:25.379Z,15.55
2018-03-17T18:29:56.537Z,15.30
2018-03-17T18:32:27.710Z,14.82
2018-03-17T18:34:58.919Z,13.85
2018-03-17T18:37:29.930Z,13.18
2018-03-17T18:40:01.019Z,16.12
2018-03-17T18:42:32.099Z,18.85
2018-03-17T18:45:03.177Z,14.82
2018-03-17T18:47:34.209Z,15.73
2018-03-17T18:50:05.220Z,15.88
2018-03-17T18:52:36.302Z,17.15
2018-03-17T18:55:07.419Z,15.85
2018-03-17T18:57:38.454Z,17.35
2018-03-17T19:00:10.240Z,17.05
2018-03-17T19:02:41.585Z,19.05
2018-03-17T19:05:12.939Z,15.40
2018-03-17T19:07:43.965Z,16.98
2018-03-17T19:10:15.021Z,16.92
2018-03-17T19:12:46.394Z,19.27
2018-03-17T19:15:17.462Z,17.17
2018-03-17T19:17:48.491Z,14.25
2018-03-17T19:20:26.567Z,17.65
2018-03-17T19:22:58.079Z,18.05
2018-03-17T19:25:36.174Z,16.77
2018-03-17T19:28:07.230Z,18.27
2018-03-17T19:30:38.268Z,18.95
2018-03-17T19:33:09.289Z,18.30
2018-03-17T19:35:40.374Z,18.42
2018-03-17T19:38:11.481Z,19.27
2018-03-17T19:40:42.523Z,22.85
2018-03-17T19:43:13.547Z,20.23
2018-03-17T19:45:44.588Z,19.75
2018-03-17T19:48:15.560Z,19.62
2018-03-17T19:50:46.732Z,20.20
2018-03-17T19:53:18.119Z,21.27
2018-03-17T19:55:49.280Z,19.45
2018-03-17T19:58:20.284Z,21.20
2018-03-17T20:00:51.331Z,22.02
2018-03-17T20:03:22.689Z,20.40
2018-03-17T20:05:54.159Z,21.25
2018-03-17T20:08:25.148Z,22.98
2018-03-17T20:10:56.178Z,20.40
2018-03-17T20:13:27.251Z,19.58
2018-03-17T20:15:58.279Z,20.73
2018-03-17T20:18:29.280Z,18.17
2018-03-17T20:21:00.322Z,21.67
2018-03-17T20:23:31.427Z,20.45
